sensor_id;sensor_type;location;lat;lon;timestamp;pressure;altitude;pressure_sealevel;temperature;humidity
40612;BME280;26317;44.894;20.286;2023-07-28T00:00:29;100605.44;;;19.39;68.53
40612;BME280;26317;44.894;20.286;2023-07-28T00:03:00;100581.84;;;19.22;67.89
40612;BME280;26317;44.894;20.286;2023-07-28T00:05:30;100600.78;;;19.39;67.42
40612;BME280;26317;44.894;20.286;2023-07-28T00:08:01;100596.81;;;19.37;67.66
40612;BME280;26317;44.894;20.286;2023-07-28T00:10:31;100599.06;;;19.35;68.10
40612;BME280;26317;44.894;20.286;2023-07-28T00:13:01;100588.84;;;19.32;68.44
40612;BME280;26317;44.894;20.286;2023-07-28T00:15:35;100594.28;;;19.32;68.29
40612;BME280;26317;44.894;20.286;2023-07-28T00:18:05;100591.06;;;19.29;68.39
40612;BME280;26317;44.894;20.286;2023-07-28T00:20:35;100594.13;;;19.28;67.97
40612;BME280;26317;44.894;20.286;2023-07-28T00:23:07;100588.06;;;19.22;67.72
40612;BME280;26317;44.894;20.286;2023-07-28T00:25:37;100583.59;;;19.18;67.72
40612;BME280;26317;44.894;20.286;2023-07-28T00:28:08;100589.53;;;19.20;68.44
40612;BME280;26317;44.894;20.286;2023-07-28T00:30:40;100547.28;;;18.84;68.07
40612;BME280;26317;44.894;20.286;2023-07-28T00:33:11;100587.97;;;19.10;68.00
40612;BME280;26317;44.894;20.286;2023-07-28T00:35:41;100591.94;;;19.13;67.62
40612;BME280;26317;44.894;20.286;2023-07-28T00:38:11;100593.41;;;19.10;67.13
40612;BME280;26317;44.894;20.286;2023-07-28T00:40:42;100597.25;;;19.09;67.74
40612;BME280;26317;44.894;20.286;2023-07-28T00:43:12;100585.41;;;19.05;67.90
40612;BME280;26317;44.894;20.286;2023-07-28T00:45:45;100584.97;;;19.03;67.54
40612;BME280;26317;44.894;20.286;2023-07-28T00:48:16;100582.25;;;19.03;68.08
40612;BME280;26317;44.894;20.286;2023-07-28T00:50:48;100580.81;;;18.97;68.58
40612;BME280;26317;44.894;20.286;2023-07-28T00:53:19;100579.03;;;19.01;68.33
40612;BME280;26317;44.894;20.286;2023-07-28T00:55:50;100572.19;;;18.95;68.23
40612;BME280;26317;44.894;20.286;2023-07-28T00:58:20;100579.56;;;18.95;68.41
40612;BME280;26317;44.894;20.286;2023-07-28T01:00:53;100566.78;;;18.87;68.57
40612;BME280;26317;44.894;20.286;2023-07-28T01:03:24;100585.16;;;18.90;69.04
40612;BME280;26317;44.894;20.286;2023-07-28T01:05:57;100587.09;;;18.89;69.13
40612;BME280;26317;44.894;20.286;2023-07-28T01:08:33;100580.41;;;18.78;69.06
40612;BME280;26317;44.894;20.286;2023-07-28T01:11:04;100579.09;;;18.84;69.39
40612;BME280;26317;44.894;20.286;2023-07-28T01:13:34;100585.03;;;18.86;69.50
40612;BME280;26317;44.894;20.286;2023-07-28T01:16:08;100585.03;;;18.86;69.10
40612;BME280;26317;44.894;20.286;2023-07-28T01:18:38;100579.75;;;18.81;68.95
40612;BME280;26317;44.894;20.286;2023-07-28T01:21:13;100574.31;;;18.81;69.07
40612;BME280;26317;44.894;20.286;2023-07-28T01:23:52;100551.34;;;18.70;69.27
40612;BME280;26317;44.894;20.286;2023-07-28T01:26:32;100579.09;;;18.84;69.12
40612;BME280;26317;44.894;20.286;2023-07-28T01:29:05;100572.06;;;18.83;68.58
40612;BME280;26317;44.894;20.286;2023-07-28T01:31:35;100577.84;;;18.81;68.64
40612;BME280;26317;44.894;20.286;2023-07-28T01:34:06;100575.13;;;18.81;68.37
40612;BME280;26317;44.894;20.286;2023-07-28T01:36:36;100557.22;;;18.72;68.18
40612;BME280;26317;44.894;20.286;2023-07-28T01:39:06;100563.31;;;18.77;67.62
40612;BME280;26317;44.894;20.286;2023-07-28T01:41:39;100558.34;;;18.71;67.47
40612;BME280;26317;44.894;20.286;2023-07-28T01:44:11;100544.63;;;18.59;67.25
40612;BME280;26317;44.894;20.286;2023-07-28T01:46:41;100566.66;;;18.74;66.91
40612;BME280;26317;44.894;20.286;2023-07-28T01:49:12;100557.09;;;18.68;66.90
40612;BME280;26317;44.894;20.286;2023-07-28T01:51:42;100567.13;;;18.76;67.22
40612;BME280;26317;44.894;20.286;2023-07-28T01:54:12;100555.47;;;18.76;67.36
40612;BME280;26317;44.894;20.286;2023-07-28T01:56:45;100555.94;;;18.78;67.31
40612;BME280;26317;44.894;20.286;2023-07-28T01:59:16;100549.56;;;18.74;66.64
40612;BME280;26317;44.894;20.286;2023-07-28T02:01:47;100549.88;;;18.72;66.45
40612;BME280;26317;44.894;20.286;2023-07-28T02:04:17;100550.69;;;18.73;66.71
40612;BME280;26317;44.894;20.286;2023-07-28T02:06:48;100539.53;;;18.66;66.67
40612;BME280;26317;44.894;20.286;2023-07-28T02:09:18;100536.16;;;18.69;66.84
40612;BME280;26317;44.894;20.286;2023-07-28T02:11:51;100537.28;;;18.68;66.89
40612;BME280;26317;44.894;20.286;2023-07-28T02:14:21;100539.53;;;18.66;66.75
40612;BME280;26317;44.894;20.286;2023-07-28T02:16:52;100550.41;;;18.66;66.53
40612;BME280;26317;44.894;20.286;2023-07-28T02:19:22;100548.00;;;18.64;66.21
40612;BME280;26317;44.894;20.286;2023-07-28T02:21:52;100531.22;;;18.54;65.98
40612;BME280;26317;44.894;20.286;2023-07-28T02:24:23;100546.72;;;18.62;66.36
40612;BME280;26317;44.894;20.286;2023-07-28T02:26:55;100531.56;;;18.44;66.21
40612;BME280;26317;44.894;20.286;2023-07-28T02:29:26;100547.69;;;18.57;65.97
40612;BME280;26317;44.894;20.286;2023-07-28T02:31:56;100532.19;;;18.49;65.71
40612;BME280;26317;44.894;20.286;2023-07-28T02:34:26;100546.91;;;18.57;66.13
40612;BME280;26317;44.894;20.286;2023-07-28T02:36:57;100543.38;;;18.56;66.24
40612;BME280;26317;44.894;20.286;2023-07-28T02:39:27;100527.06;;;18.48;65.88
40612;BME280;26317;44.894;20.286;2023-07-28T02:42:00;100535.69;;;18.58;66.22
40612;BME280;26317;44.894;20.286;2023-07-28T02:44:30;100534.56;;;18.59;65.73
40612;BME280;26317;44.894;20.286;2023-07-28T02:47:01;100534.56;;;18.59;66.02
40612;BME280;26317;44.894;20.286;2023-07-28T02:49:31;100536.50;;;18.59;65.61
40612;BME280;26317;44.894;20.286;2023-07-28T02:52:02;100510.63;;;18.44;66.10
40612;BME280;26317;44.894;20.286;2023-07-28T02:54:32;100535.88;;;18.62;66.18
40612;BME280;26317;44.894;20.286;2023-07-28T02:57:06;100534.56;;;18.59;66.09
40612;BME280;26317;44.894;20.286;2023-07-28T02:59:39;100535.38;;;18.60;65.92
40612;BME280;26317;44.894;20.286;2023-07-28T03:02:09;100541.31;;;18.62;66.36
40612;BME280;26317;44.894;20.286;2023-07-28T03:04:41;100534.72;;;18.63;67.42
40612;BME280;26317;44.894;20.286;2023-07-28T03:07:23;100529.44;;;18.58;68.20
40612;BME280;26317;44.894;20.286;2023-07-28T03:09:58;100521.66;;;18.56;69.54
40612;BME280;26317;44.894;20.286;2023-07-28T03:12:34;100522.75;;;18.55;70.16
40612;BME280;26317;44.894;20.286;2023-07-28T03:15:06;100531.03;;;18.50;71.33
40612;BME280;26317;44.894;20.286;2023-07-28T03:17:36;100526.13;;;18.44;71.69
40612;BME280;26317;44.894;20.286;2023-07-28T03:20:08;100539.69;;;18.44;72.37
40612;BME280;26317;44.894;20.286;2023-07-28T03:22:38;100541.78;;;18.38;72.60
40612;BME280;26317;44.894;20.286;2023-07-28T03:25:10;100542.59;;;18.38;72.69
40612;BME280;26317;44.894;20.286;2023-07-28T03:27:43;100540.97;;;18.37;72.76
40612;BME280;26317;44.894;20.286;2023-07-28T03:30:13;100536.34;;;18.29;72.88
40612;BME280;26317;44.894;20.286;2023-07-28T03:32:44;100544.66;;;18.33;73.21
40612;BME280;26317;44.894;20.286;2023-07-28T03:35:14;100532.69;;;18.25;73.46
40612;BME280;26317;44.894;20.286;2023-07-28T03:37:52;100536.53;;;18.24;73.91
40612;BME280;26317;44.894;20.286;2023-07-28T03:40:22;100541.19;;;18.24;74.98
40612;BME280;26317;44.894;20.286;2023-07-28T03:42:57;100541.34;;;18.19;75.25
40612;BME280;26317;44.894;20.286;2023-07-28T03:45:27;100541.19;;;18.15;75.86
40612;BME280;26317;44.894;20.286;2023-07-28T03:47:58;100545.00;;;18.14;76.42
40612;BME280;26317;44.894;20.286;2023-07-28T03:50:28;100524.25;;;18.01;77.28
40612;BME280;26317;44.894;20.286;2023-07-28T03:52:58;100518.38;;;17.99;77.73
40612;BME280;26317;44.894;20.286;2023-07-28T03:55:29;100545.47;;;18.16;77.66
40612;BME280;26317;44.894;20.286;2023-07-28T03:58:01;100531.75;;;18.13;78.04
40612;BME280;26317;44.894;20.286;2023-07-28T04:00:33;100543.25;;;18.18;77.62
40612;BME280;26317;44.894;20.286;2023-07-28T04:03:03;100537.81;;;18.18;77.92
40612;BME280;26317;44.894;20.286;2023-07-28T04:05:36;100538.63;;;18.19;77.98
40612;BME280;26317;44.894;20.286;2023-07-28T04:08:06;100543.91;;;18.24;78.38
40612;BME280;26317;44.894;20.286;2023-07-28T04:10:37;100546.28;;;18.25;78.45
40612;BME280;26317;44.894;20.286;2023-07-28T04:13:09;100543.72;;;18.29;78.33
40612;BME280;26317;44.894;20.286;2023-07-28T04:15:40;100550.44;;;18.31;78.18
40612;BME280;26317;44.894;20.286;2023-07-28T04:18:10;100534.94;;;18.23;78.49
40612;BME280;26317;44.894;20.286;2023-07-28T04:20:40;100550.28;;;18.36;78.83
40612;BME280;26317;44.894;20.286;2023-07-28T04:23:10;100551.38;;;18.35;78.68
40612;BME280;26317;44.894;20.286;2023-07-28T04:25:41;100552.34;;;18.39;78.46
40612;BME280;26317;44.894;20.286;2023-07-28T04:28:14;100544.50;;;18.38;78.51
40612;BME280;26317;44.894;20.286;2023-07-28T04:30:45;100546.25;;;18.43;78.57
40612;BME280;26317;44.894;20.286;2023-07-28T04:33:35;100556.16;;;18.47;78.83
40612;BME280;26317;44.894;20.286;2023-07-28T04:36:06;100555.84;;;18.49;79.36
40612;BME280;26317;44.894;20.286;2023-07-28T04:38:36;100565.13;;;18.56;78.79
40612;BME280;26317;44.894;20.286;2023-07-28T04:41:07;100561.59;;;18.56;78.89
40612;BME280;26317;44.894;20.286;2023-07-28T04:43:57;100549.44;;;18.62;78.84
40612;BME280;26317;44.894;20.286;2023-07-28T04:46:32;100552.47;;;18.69;78.24
40612;BME280;26317;44.894;20.286;2023-07-28T04:49:08;100563.16;;;18.74;78.35
40612;BME280;26317;44.894;20.286;2023-07-28T04:51:57;100554.03;;;18.78;77.92
40612;BME280;26317;44.894;20.286;2023-07-28T04:54:45;100558.81;;;18.81;78.20
40612;BME280;26317;44.894;20.286;2023-07-28T04:57:15;100551.25;;;18.87;78.32
40612;BME280;26317;44.894;20.286;2023-07-28T04:59:49;100551.25;;;18.87;77.54
40612;BME280;26317;44.894;20.286;2023-07-28T05:02:19;100542.00;;;18.88;77.42
40612;BME280;26317;44.894;20.286;2023-07-28T05:04:50;100563.84;;;19.00;77.12
40612;BME280;26317;44.894;20.286;2023-07-28T05:07:20;100556.50;;;19.01;76.98
40612;BME280;26317;44.894;20.286;2023-07-28T05:09:50;100563.81;;;19.09;77.27
40612;BME280;26317;44.894;20.286;2023-07-28T05:12:24;100563.94;;;19.12;77.30
40612;BME280;26317;44.894;20.286;2023-07-28T05:14:57;100577.38;;;19.17;77.18
40612;BME280;26317;44.894;20.286;2023-07-28T05:17:27;100559.63;;;19.20;76.92
40612;BME280;26317;44.894;20.286;2023-07-28T05:20:29;100555.91;;;19.24;76.59
40612;BME280;26317;44.894;20.286;2023-07-28T05:23:08;100568.69;;;19.33;76.39
40612;BME280;26317;44.894;20.286;2023-07-28T05:25:38;100572.50;;;19.32;75.87
40612;BME280;26317;44.894;20.286;2023-07-28T05:28:08;100569.66;;;19.28;75.51
40612;BME280;26317;44.894;20.286;2023-07-28T05:30:44;100579.34;;;19.46;76.20
40612;BME280;26317;44.894;20.286;2023-07-28T05:33:16;100571.31;;;19.50;75.82
40612;BME280;26317;44.894;20.286;2023-07-28T05:35:59;100575.75;;;19.54;75.33
40612;BME280;26317;44.894;20.286;2023-07-28T05:38:32;100570.28;;;19.63;74.66
40612;BME280;26317;44.894;20.286;2023-07-28T05:41:04;100573.81;;;19.84;73.46
40612;BME280;26317;44.894;20.286;2023-07-28T05:43:34;100562.91;;;19.84;73.50
40612;BME280;26317;44.894;20.286;2023-07-28T05:46:08;100571.88;;;20.05;73.27
40612;BME280;26317;44.894;20.286;2023-07-28T05:48:38;100571.81;;;20.14;71.42
40612;BME280;26317;44.894;20.286;2023-07-28T05:51:08;100573.53;;;20.18;70.67
40612;BME280;26317;44.894;20.286;2023-07-28T05:53:39;100577.25;;;20.35;70.05
40612;BME280;26317;44.894;20.286;2023-07-28T05:56:09;100565.69;;;20.38;70.35
40612;BME280;26317;44.894;20.286;2023-07-28T05:58:39;100566.19;;;20.52;70.17
40612;BME280;26317;44.894;20.286;2023-07-28T06:01:12;100564.88;;;20.58;71.13
40612;BME280;26317;44.894;20.286;2023-07-28T06:04:01;100561.69;;;20.68;69.39
40612;BME280;26317;44.894;20.286;2023-07-28T06:06:38;100572.19;;;20.78;67.91
40612;BME280;26317;44.894;20.286;2023-07-28T06:09:11;100568.09;;;20.84;67.18
40612;BME280;26317;44.894;20.286;2023-07-28T06:11:43;100574.44;;;20.88;64.68
40612;BME280;26317;44.894;20.286;2023-07-28T06:14:14;100584.13;;;20.98;63.24
40612;BME280;26317;44.894;20.286;2023-07-28T06:16:47;100588.38;;;21.07;63.53
40612;BME280;26317;44.894;20.286;2023-07-28T06:19:18;100591.66;;;21.13;63.27
40612;BME280;26317;44.894;20.286;2023-07-28T06:21:52;100550.38;;;20.90;63.02
40612;BME280;26317;44.894;20.286;2023-07-28T06:24:23;100597.03;;;21.22;64.73
40612;BME280;26317;44.894;20.286;2023-07-28T06:26:53;100601.56;;;21.30;63.66
40612;BME280;26317;44.894;20.286;2023-07-28T06:29:23;100564.50;;;21.17;63.20
40612;BME280;26317;44.894;20.286;2023-07-28T06:31:56;100593.84;;;21.44;63.16
40612;BME280;26317;44.894;20.286;2023-07-28T06:34:27;100581.91;;;21.48;61.50
40612;BME280;26317;44.894;20.286;2023-07-28T06:36:58;100600.91;;;21.57;61.00
40612;BME280;26317;44.894;20.286;2023-07-28T06:39:28;100585.97;;;21.67;61.43
40612;BME280;26317;44.894;20.286;2023-07-28T06:41:59;100599.06;;;21.73;60.01
40612;BME280;26317;44.894;20.286;2023-07-28T06:44:29;100592.56;;;21.78;60.29
40612;BME280;26317;44.894;20.286;2023-07-28T06:47:03;100585.97;;;21.79;59.75
40612;BME280;26317;44.894;20.286;2023-07-28T06:49:34;100590.28;;;21.92;58.95
40612;BME280;26317;44.894;20.286;2023-07-28T06:52:06;100589.72;;;21.98;58.96
40612;BME280;26317;44.894;20.286;2023-07-28T06:54:36;100581.03;;;21.96;57.11
40612;BME280;26317;44.894;20.286;2023-07-28T06:57:07;100574.34;;;21.94;56.67
40612;BME280;26317;44.894;20.286;2023-07-28T06:59:37;100593.44;;;22.06;56.96
40612;BME280;26317;44.894;20.286;2023-07-28T07:02:10;100597.41;;;22.09;56.12
40612;BME280;26317;44.894;20.286;2023-07-28T07:04:41;100602.09;;;22.08;55.15
40612;BME280;26317;44.894;20.286;2023-07-28T07:07:12;100604.69;;;22.17;56.37
40612;BME280;26317;44.894;20.286;2023-07-28T07:09:42;100605.06;;;22.31;56.88
40612;BME280;26317;44.894;20.286;2023-07-28T07:12:12;100589.34;;;22.40;55.78
40612;BME280;26317;44.894;20.286;2023-07-28T07:14:43;100563.91;;;22.24;55.89
40612;BME280;26317;44.894;20.286;2023-07-28T07:17:16;100591.34;;;22.43;56.09
40612;BME280;26317;44.894;20.286;2023-07-28T07:19:47;100597.22;;;22.57;56.17
40612;BME280;26317;44.894;20.286;2023-07-28T07:22:17;100595.81;;;22.63;56.40
40612;BME280;26317;44.894;20.286;2023-07-28T07:24:48;100581.47;;;22.66;55.88
40612;BME280;26317;44.894;20.286;2023-07-28T07:27:18;100590.03;;;22.80;55.43
40612;BME280;26317;44.894;20.286;2023-07-28T07:29:48;100589.53;;;22.75;54.94
40612;BME280;26317;44.894;20.286;2023-07-28T07:32:28;100595.44;;;22.77;57.34
40612;BME280;26317;44.894;20.286;2023-07-28T07:35:03;100605.78;;;22.83;56.92
40612;BME280;26317;44.894;20.286;2023-07-28T07:37:38;100603.38;;;22.98;55.23
40612;BME280;26317;44.894;20.286;2023-07-28T07:40:23;100601.19;;;23.03;55.54
40612;BME280;26317;44.894;20.286;2023-07-28T07:42:55;100604.66;;;23.16;55.29
40612;BME280;26317;44.894;20.286;2023-07-28T07:45:25;100581.88;;;23.12;54.18
40612;BME280;26317;44.894;20.286;2023-07-28T07:47:59;100593.50;;;23.40;55.45
40612;BME280;26317;44.894;20.286;2023-07-28T07:50:30;100599.97;;;23.48;54.94
40612;BME280;26317;44.894;20.286;2023-07-28T07:53:01;100585.22;;;23.52;53.73
40612;BME280;26317;44.894;20.286;2023-07-28T07:55:32;100585.47;;;23.63;52.96
40612;BME280;26317;44.894;20.286;2023-07-28T07:58:13;100591.88;;;23.70;52.63
40612;BME280;26317;44.894;20.286;2023-07-28T08:00:48;100569.66;;;23.56;52.04
40612;BME280;26317;44.894;20.286;2023-07-28T08:03:29;100569.09;;;23.66;51.63
40612;BME280;26317;44.894;20.286;2023-07-28T08:06:02;100595.38;;;23.87;52.07
40612;BME280;26317;44.894;20.286;2023-07-28T08:08:41;100588.03;;;23.91;52.29
40612;BME280;26317;44.894;20.286;2023-07-28T08:11:13;100574.84;;;23.96;52.04
40612;BME280;26317;44.894;20.286;2023-07-28T08:13:43;100588.75;;;24.07;52.26
40612;BME280;26317;44.894;20.286;2023-07-28T08:16:18;100591.38;;;24.19;52.49
40612;BME280;26317;44.894;20.286;2023-07-28T08:18:58;100578.91;;;24.21;50.59
40612;BME280;26317;44.894;20.286;2023-07-28T08:21:29;100583.88;;;24.35;50.15
40612;BME280;26317;44.894;20.286;2023-07-28T08:24:07;100574.34;;;24.48;50.25
40612;BME280;26317;44.894;20.286;2023-07-28T08:26:38;100560.44;;;24.38;50.16
40612;BME280;26317;44.894;20.286;2023-07-28T08:29:20;100577.19;;;24.55;52.03
40612;BME280;26317;44.894;20.286;2023-07-28T08:31:55;100577.78;;;24.64;49.68
40612;BME280;26317;44.894;20.286;2023-07-28T08:34:32;100577.47;;;24.69;48.92
40612;BME280;26317;44.894;20.286;2023-07-28T08:37:03;100581.94;;;24.78;47.55
40612;BME280;26317;44.894;20.286;2023-07-28T08:39:35;100584.69;;;24.78;48.76
40612;BME280;26317;44.894;20.286;2023-07-28T08:42:16;100584.13;;;24.88;45.37
40612;BME280;26317;44.894;20.286;2023-07-28T08:44:49;100579.47;;;24.92;44.28
40612;BME280;26317;44.894;20.286;2023-07-28T08:47:48;100577.59;;;24.96;42.41
40612;BME280;26317;44.894;20.286;2023-07-28T08:50:40;100571.75;;;25.01;42.72
40612;BME280;26317;44.894;20.286;2023-07-28T08:53:10;100564.88;;;25.10;40.97
40612;BME280;26317;44.894;20.286;2023-07-28T08:55:40;100579.94;;;25.20;40.85
40612;BME280;26317;44.894;20.286;2023-07-28T08:58:14;100580.88;;;25.31;42.28
40612;BME280;26317;44.894;20.286;2023-07-28T09:00:47;100573.19;;;25.40;42.59
40612;BME280;26317;44.894;20.286;2023-07-28T09:03:22;100568.72;;;25.55;41.98
40612;BME280;26317;44.894;20.286;2023-07-28T09:06:02;100565.69;;;25.63;44.52
40612;BME280;26317;44.894;20.286;2023-07-28T09:08:36;100560.31;;;25.71;43.57
40612;BME280;26317;44.894;20.286;2023-07-28T09:11:06;100564.72;;;25.75;41.13
40612;BME280;26317;44.894;20.286;2023-07-28T09:13:39;100560.19;;;25.90;44.04
40612;BME280;26317;44.894;20.286;2023-07-28T09:16:16;100559.84;;;25.95;41.80
40612;BME280;26317;44.894;20.286;2023-07-28T09:18:47;100563.13;;;26.04;41.09
40612;BME280;26317;44.894;20.286;2023-07-28T09:21:20;100559.66;;;26.10;40.65
40612;BME280;26317;44.894;20.286;2023-07-28T09:23:51;100561.78;;;26.21;40.42
40612;BME280;26317;44.894;20.286;2023-07-28T09:26:21;100561.47;;;26.29;40.92
40612;BME280;26317;44.894;20.286;2023-07-28T09:28:52;100560.91;;;26.17;38.68
40612;BME280;26317;44.894;20.286;2023-07-28T09:31:29;100549.25;;;26.27;39.86
40612;BME280;26317;44.894;20.286;2023-07-28T09:34:00;100541.53;;;26.39;38.43
40612;BME280;26317;44.894;20.286;2023-07-28T09:36:34;100551.03;;;26.45;39.82
40612;BME280;26317;44.894;20.286;2023-07-28T09:39:09;100541.69;;;26.53;42.05
40612;BME280;26317;44.894;20.286;2023-07-28T09:41:40;100541.47;;;26.73;39.99
40612;BME280;26317;44.894;20.286;2023-07-28T09:44:11;100532.09;;;26.81;38.92
40612;BME280;26317;44.894;20.286;2023-07-28T09:46:52;100529.03;;;26.86;36.47
40612;BME280;26317;44.894;20.286;2023-07-28T09:49:41;100541.31;;;26.95;38.16
40612;BME280;26317;44.894;20.286;2023-07-28T09:52:19;100536.56;;;26.92;38.08
40612;BME280;26317;44.894;20.286;2023-07-28T09:55:07;100524.81;;;26.99;39.90
40612;BME280;26317;44.894;20.286;2023-07-28T09:57:51;100525.69;;;27.10;38.28
40612;BME280;26317;44.894;20.286;2023-07-28T10:00:26;100493.66;;;26.88;37.50
40612;BME280;26317;44.894;20.286;2023-07-28T10:02:57;100515.47;;;27.14;38.26
40612;BME280;26317;44.894;20.286;2023-07-28T10:05:34;100494.22;;;27.11;39.02
40612;BME280;26317;44.894;20.286;2023-07-28T10:08:10;100513.66;;;27.36;38.05
40612;BME280;26317;44.894;20.286;2023-07-28T10:10:41;100506.59;;;27.38;36.54
40612;BME280;26317;44.894;20.286;2023-07-28T10:13:19;100523.16;;;27.45;37.66
40612;BME280;26317;44.894;20.286;2023-07-28T10:15:51;100520.84;;;27.48;36.95
40612;BME280;26317;44.894;20.286;2023-07-28T10:18:21;100516.19;;;27.59;38.21
40612;BME280;26317;44.894;20.286;2023-07-28T10:20:52;100518.19;;;27.65;36.87
40612;BME280;26317;44.894;20.286;2023-07-28T10:23:25;100517.44;;;27.72;37.28
40612;BME280;26317;44.894;20.286;2023-07-28T10:25:57;100520.22;;;27.82;36.51
40612;BME280;26317;44.894;20.286;2023-07-28T10:28:30;100521.47;;;27.99;37.29
40612;BME280;26317;44.894;20.286;2023-07-28T10:31:08;100527.00;;;28.03;35.31
40612;BME280;26317;44.894;20.286;2023-07-28T10:33:44;100524.66;;;28.08;34.92
40612;BME280;26317;44.894;20.286;2023-07-28T10:36:32;100528.28;;;28.19;34.85
40612;BME280;26317;44.894;20.286;2023-07-28T10:39:17;100519.63;;;28.28;34.37
40612;BME280;26317;44.894;20.286;2023-07-28T10:42:04;100525.13;;;28.31;34.38
40612;BME280;26317;44.894;20.286;2023-07-28T10:44:37;100507.41;;;28.36;35.26
40612;BME280;26317;44.894;20.286;2023-07-28T10:47:11;100514.13;;;28.46;34.92
40612;BME280;26317;44.894;20.286;2023-07-28T10:49:47;100516.09;;;28.56;33.74
40612;BME280;26317;44.894;20.286;2023-07-28T10:52:27;100508.66;;;28.67;33.55
40612;BME280;26317;44.894;20.286;2023-07-28T10:55:20;100504.75;;;28.71;32.31
40612;BME280;26317;44.894;20.286;2023-07-28T10:57:55;100503.94;;;28.71;32.53
40612;BME280;26317;44.894;20.286;2023-07-28T11:00:37;100508.28;;;28.79;33.61
40612;BME280;26317;44.894;20.286;2023-07-28T11:03:15;100491.69;;;28.61;32.61
40612;BME280;26317;44.894;20.286;2023-07-28T11:05:57;100503.94;;;28.82;33.94
40612;BME280;26317;44.894;20.286;2023-07-28T11:08:32;100505.13;;;28.91;33.51
40612;BME280;26317;44.894;20.286;2023-07-28T11:11:11;100487.38;;;28.96;30.72
40612;BME280;26317;44.894;20.286;2023-07-28T11:13:49;100498.00;;;29.04;31.59
40612;BME280;26317;44.894;20.286;2023-07-28T11:16:22;100492.84;;;29.10;31.54
40612;BME280;26317;44.894;20.286;2023-07-28T11:19:01;100494.84;;;29.16;32.15
40612;BME280;26317;44.894;20.286;2023-07-28T11:21:42;100489.28;;;29.23;31.40
40612;BME280;26317;44.894;20.286;2023-07-28T11:24:20;100483.75;;;29.23;31.58
40612;BME280;26317;44.894;20.286;2023-07-28T11:26:57;100479.81;;;29.28;31.54
40612;BME280;26317;44.894;20.286;2023-07-28T11:29:29;100477.06;;;29.39;32.74
40612;BME280;26317;44.894;20.286;2023-07-28T11:32:03;100473.47;;;29.42;30.59
40612;BME280;26317;44.894;20.286;2023-07-28T11:34:37;100482.56;;;29.46;31.15
40612;BME280;26317;44.894;20.286;2023-07-28T11:37:09;100471.88;;;29.55;30.08
40612;BME280;26317;44.894;20.286;2023-07-28T11:39:40;100475.75;;;29.68;31.56
40612;BME280;26317;44.894;20.286;2023-07-28T11:42:13;100476.53;;;29.72;31.09
40612;BME280;26317;44.894;20.286;2023-07-28T11:44:43;100457.91;;;29.83;29.56
40612;BME280;26317;44.894;20.286;2023-07-28T11:47:17;100457.41;;;30.02;29.41
40612;BME280;26317;44.894;20.286;2023-07-28T11:49:48;100446.34;;;30.06;28.52
40612;BME280;26317;44.894;20.286;2023-07-28T11:52:19;100443.03;;;30.29;28.92
40612;BME280;26317;44.894;20.286;2023-07-28T11:54:51;100446.16;;;30.34;29.80
40612;BME280;26317;44.894;20.286;2023-07-28T11:57:25;100445.31;;;30.41;28.36
40612;BME280;26317;44.894;20.286;2023-07-28T11:59:58;100430.72;;;30.37;27.97
40612;BME280;26317;44.894;20.286;2023-07-28T12:02:31;100434.63;;;30.46;28.24
40612;BME280;26317;44.894;20.286;2023-07-28T12:05:12;100427.03;;;30.54;28.38
40612;BME280;26317;44.894;20.286;2023-07-28T12:07:48;100430.53;;;30.62;28.46
40612;BME280;26317;44.894;20.286;2023-07-28T12:10:18;100426.13;;;30.68;28.45
40612;BME280;26317;44.894;20.286;2023-07-28T12:12:54;100426.78;;;30.82;30.00
40612;BME280;26317;44.894;20.286;2023-07-28T12:15:28;100417.19;;;30.90;29.46
40612;BME280;26317;44.894;20.286;2023-07-28T12:18:10;100433.63;;;31.12;29.19
40612;BME280;26317;44.894;20.286;2023-07-28T12:20:46;100421.19;;;31.27;28.44
40612;BME280;26317;44.894;20.286;2023-07-28T12:23:19;100423.66;;;31.18;27.74
40612;BME280;26317;44.894;20.286;2023-07-28T12:25:53;100427.47;;;31.31;28.72
40612;BME280;26317;44.894;20.286;2023-07-28T12:28:28;100423.44;;;31.39;27.52
40612;BME280;26317;44.894;20.286;2023-07-28T12:31:10;100426.47;;;31.48;27.64
40612;BME280;26317;44.894;20.286;2023-07-28T12:33:41;100428.78;;;31.53;28.28
40612;BME280;26317;44.894;20.286;2023-07-28T12:36:14;100420.91;;;31.48;26.63
40612;BME280;26317;44.894;20.286;2023-07-28T12:38:49;100423.94;;;31.64;27.23
40612;BME280;26317;44.894;20.286;2023-07-28T12:41:20;100422.13;;;31.77;27.69
40612;BME280;26317;44.894;20.286;2023-07-28T12:44:10;100406.41;;;31.98;26.56
40612;BME280;26317;44.894;20.286;2023-07-28T12:46:43;100420.41;;;32.17;27.52
40612;BME280;26317;44.894;20.286;2023-07-28T12:49:13;100412.16;;;32.37;27.16
40612;BME280;26317;44.894;20.286;2023-07-28T12:51:47;100419.78;;;32.56;25.62
40612;BME280;26317;44.894;20.286;2023-07-28T12:54:21;100410.84;;;32.68;25.16
40612;BME280;26317;44.894;20.286;2023-07-28T12:56:52;100418.19;;;32.78;23.66
40612;BME280;26317;44.894;20.286;2023-07-28T12:59:29;100401.63;;;32.95;24.66
40612;BME280;26317;44.894;20.286;2023-07-28T13:01:59;100404.13;;;33.09;24.83
40612;BME280;26317;44.894;20.286;2023-07-28T13:04:29;100407.09;;;33.21;23.41
40612;BME280;26317;44.894;20.286;2023-07-28T13:06:59;100401.88;;;33.23;22.20
40612;BME280;26317;44.894;20.286;2023-07-28T13:09:33;100395.94;;;33.41;23.34
40612;BME280;26317;44.894;20.286;2023-07-28T13:12:08;100374.41;;;33.45;23.75